Time,TemperatureF,DewpointF,PressureIn,WindDirection,WindDirectionDegrees,WindSpeedMPH,WindSpeedGustMPH,Humidity,HourlyPrecipIn,Conditions,Clouds,dailyrainin,SoftwareType,DateUTC
2013-08-28 00:01:00,66.2,65.8,29.85,NE,45,0.0,0.0,99,0.00,,,0.00,meteobridge,2013-08-28 04:01:00,
2013-08-28 00:02:00,66.2,65.8,29.85,NE,45,0.0,0.0,99,0.00,,,0.00,meteobridge,2013-08-28 04:02:00,
2013-08-28 00:05:00,66.2,65.8,29.85,NE,45,0.0,0.0,99,0.00,,,0.00,meteobridge,2013-08-28 04:05:00,
2013-08-28 00:10:00,66.4,66.0,29.85,NE,45,0.0,0.0,99,0.00,,,0.00,meteobridge,2013-08-28 04:10:00,
2013-08-28 00:15:00,66.2,65.8,29.85,NE,45,0.0,0.0,99,0.00,,,0.00,meteobridge,2013-08-28 04:15:00,
2013-08-28 00:20:00,66.2,65.8,29.85,NW,315,0.0,0.0,99,0.00,,,0.00,meteobridge,2013-08-28 04:20:00,
2013-08-28 00:25:00,66.2,65.8,29.85,SE,135,0.0,0.0,99,0.00,,,0.00,meteobridge,2013-08-28 04:25:00,
2013-08-28 00:30:00,66.2,65.8,29.85,SE,135,0.0,0.0,99,0.00,,,0.00,meteobridge,2013-08-28 04:30:00,
2013-08-28 00:35:00,66.2,65.8,29.85,SE,135,0.0,0.0,99,0.00,,,0.00,meteobridge,2013-08-28 04:35:00,
2013-08-28 00:40:00,66.2,65.8,29.85,SE,135,0.0,0.0,99,0.00,,,0.00,meteobridge,2013-08-28 04:40:00,
2013-08-28 00:46:00,66.2,65.8,29.85,SE,135,0.0,0.0,99,0.00,,,0.00,meteobridge,2013-08-28 04:46:00,
2013-08-28 00:51:00,66.2,65.8,29.85,West,270,0.0,0.0,99,0.00,,,0.00,meteobridge,2013-08-28 04:51:00,
2013-08-28 00:56:00,66.0,65.7,29.85,West,270,0.0,0.0,99,0.00,,,0.00,meteobridge,2013-08-28 04:56:00,
2013-08-28 01:01:00,66.0,65.7,29.85,West,270,0.0,0.0,99,0.00,,,0.00,meteobridge,2013-08-28 05:01:00,
2013-08-28 01:06:00,66.0,65.7,29.85,West,270,0.0,0.0,99,0.00,,,0.00,meteobridge,2013-08-28 05:06:00,
2013-08-28 01:12:00,66.0,65.7,29.85,West,270,0.0,0.0,99,0.00,,,0.00,meteobridge,2013-08-28 05:12:00,
2013-08-28 01:17:00,66.2,65.8,29.85,NW,315,0.0,0.0,99,0.00,,,0.00,meteobridge,2013-08-28 05:17:00,
2013-08-28 01:22:00,66.2,65.8,29.85,North,0,0.0,0.0,99,0.00,,,0.00,meteobridge,2013-08-28 05:22:00,
2013-08-28 01:27:00,66.0,65.7,29.84,SE,135,0.0,0.0,99,0.00,,,0.00,meteobridge,2013-08-28 05:27:00,
2013-08-28 01:32:00,66.0,65.7,29.85,North,0,0.0,0.0,99,0.00,,,0.00,meteobridge,2013-08-28 05:32:00,
2013-08-28 01:37:00,66.0,65.7,29.84,East,90,0.0,0.0,99,0.00,,,0.00,meteobridge,2013-08-28 05:37:00,
2013-08-28 01:43:00,66.0,65.7,29.84,East,90,0.0,0.0,99,0.00,,,0.00,meteobridge,2013-08-28 05:43:00,
2013-08-28 01:48:00,66.0,65.7,29.84,East,90,0.0,0.0,99,0.00,,,0.00,meteobridge,2013-08-28 05:48:00,
2013-08-28 01:53:00,66.2,65.8,29.84,East,90,0.0,0.0,99,0.00,,,0.00,meteobridge,2013-08-28 05:53:00,
2013-08-28 01:58:00,66.2,65.8,29.84,East,90,0.0,0.0,99,0.00,,,0.00,meteobridge,2013-08-28 05:58:00,
2013-08-28 02:03:00,66.2,65.8,29.84,East,90,0.0,0.0,99,0.00,,,0.00,meteobridge,2013-08-28 06:03:00,
2013-08-28 02:08:00,66.2,65.8,29.84,East,90,0.0,0.0,99,0.00,,,0.00,meteobridge,2013-08-28 06:08:00,
2013-08-28 02:14:00,66.2,65.8,29.83,East,90,0.0,0.0,99,0.00,,,0.00,meteobridge,2013-08-28 06:14:00,
2013-08-28 02:19:00,66.4,66.0,29.83,East,90,0.0,0.0,99,0.00,,,0.00,meteobridge,2013-08-28 06:19:00,
2013-08-28 02:24:00,66.4,66.0,29.83,East,90,0.0,0.0,99,0.00,,,0.00,meteobridge,2013-08-28 06:24:00,
2013-08-28 02:29:00,66.4,66.0,29.83,East,90,0.0,0.0,99,0.00,,,0.00,meteobridge,2013-08-28 06:29:00,
2013-08-28 02:34:00,66.4,66.0,29.83,North,0,0.0,0.0,99,0.00,,,0.00,meteobridge,2013-08-28 06:34:00,
2013-08-28 02:39:00,66.4,66.0,29.83,North,0,0.7,0.7,99,0.00,,,0.00,meteobridge,2013-08-28 06:39:00,
2013-08-28 02:45:00,66.4,66.0,29.83,North,0,0.0,0.0,99,0.00,,,0.00,meteobridge,2013-08-28 06:45:00,
2013-08-28 02:50:00,66.4,66.0,29.83,SW,225,0.0,0.0,99,0.00,,,0.00,meteobridge,2013-08-28 06:50:00,
2013-08-28 02:55:00,66.2,65.8,29.83,SW,225,0.0,0.0,99,0.00,,,0.00,meteobridge,2013-08-28 06:55:00,
2013-08-28 03:00:00,66.2,65.8,29.83,SW,225,0.0,0.0,99,0.00,,,0.00,meteobridge,2013-08-28 07:00:00,
2013-08-28 03:05:00,66.2,65.8,29.83,SW,225,0.0,0.0,99,0.00,,,0.00,meteobridge,2013-08-28 07:05:00,
2013-08-28 03:10:00,66.2,65.8,29.83,NW,315,0.0,0.0,99,0.00,,,0.00,meteobridge,2013-08-28 07:10:00,
2013-08-28 03:16:00,66.2,65.8,29.83,NW,315,0.0,0.0,99,0.00,,,0.00,meteobridge,2013-08-28 07:16:00,
2013-08-28 03:21:00,66.0,65.7,29.83,NW,315,0.0,0.0,99,0.00,,,0.00,meteobridge,2013-08-28 07:21:00,
2013-08-28 03:26:00,66.0,65.7,29.83,NW,315,0.0,0.0,99,0.00,,,0.00,meteobridge,2013-08-28 07:26:00,
2013-08-28 03:31:00,66.2,65.8,29.83,NW,315,0.0,0.0,99,0.00,,,0.00,meteobridge,2013-08-28 07:31:00,
2013-08-28 03:36:00,66.2,65.8,29.83,North,0,0.0,0.0,99,0.00,,,0.00,meteobridge,2013-08-28 07:36:00,
2013-08-28 03:41:00,66.0,65.7,29.83,NE,45,0.0,0.0,99,0.00,,,0.00,meteobridge,2013-08-28 07:41:00,
2013-08-28 03:47:00,66.0,65.7,29.83,NE,45,0.0,0.0,99,0.00,,,0.00,meteobridge,2013-08-28 07:47:00,
2013-08-28 03:52:00,66.0,65.7,29.83,NE,45,0.0,0.0,99,0.00,,,0.00,meteobridge,2013-08-28 07:52:00,
2013-08-28 03:57:00,66.0,65.7,29.83,NE,45,0.0,0.0,99,0.00,,,0.00,meteobridge,2013-08-28 07:57:00,
2013-08-28 04:02:00,66.0,65.7,29.82,NE,45,0.0,0.0,99,0.00,,,0.00,meteobridge,2013-08-28 08:02:00,
2013-08-28 04:07:00,66.0,65.7,29.83,North,0,0.0,0.7,99,0.00,,,0.00,meteobridge,2013-08-28 08:07:00,
2013-08-28 04:12:00,66.0,65.7,29.83,NE,45,0.0,0.0,99,0.00,,,0.00,meteobridge,2013-08-28 08:12:00,
2013-08-28 04:18:00,66.0,65.7,29.83,NE,45,0.0,0.7,99,0.00,,,0.00,meteobridge,2013-08-28 08:18:00,
2013-08-28 04:23:00,66.0,65.7,29.83,East,90,1.6,1.6,99,0.00,,,0.00,meteobridge,2013-08-28 08:23:00,
2013-08-28 04:28:00,65.8,65.5,29.83,NE,45,0.0,0.0,99,0.00,,,0.00,meteobridge,2013-08-28 08:28:00,
2013-08-28 04:33:00,65.8,65.5,29.83,North,0,0.0,0.7,99,0.00,,,0.00,meteobridge,2013-08-28 08:33:00,
2013-08-28 04:38:00,65.8,65.5,29.83,East,90,0.7,0.7,99,0.00,,,0.00,meteobridge,2013-08-28 08:38:00,
2013-08-28 04:43:00,65.8,65.5,29.83,NW,315,0.7,0.7,99,0.00,,,0.00,meteobridge,2013-08-28 08:43:00,
2013-08-28 04:49:00,65.8,65.5,29.83,NW,315,1.6,1.6,99,0.00,,,0.00,meteobridge,2013-08-28 08:49:00,
2013-08-28 04:54:00,65.7,65.3,29.83,SW,225,0.0,0.0,99,0.00,,,0.00,meteobridge,2013-08-28 08:54:00,
2013-08-28 04:59:00,65.7,65.3,29.83,NW,315,0.0,0.7,99,0.00,,,0.00,meteobridge,2013-08-28 08:59:00,
2013-08-28 05:04:00,65.5,65.1,29.83,NW,315,0.0,0.0,99,0.00,,,0.00,meteobridge,2013-08-28 09:04:00,
2013-08-28 05:09:00,65.5,65.1,29.83,SE,135,0.0,0.0,99,0.00,,,0.00,meteobridge,2013-08-28 09:09:00,
2013-08-28 05:14:00,65.5,65.1,29.83,West,270,0.7,0.7,99,0.00,,,0.00,meteobridge,2013-08-28 09:14:00,
2013-08-28 05:20:00,65.5,65.1,29.83,East,90,0.0,0.0,99,0.00,,,0.00,meteobridge,2013-08-28 09:20:00,
2013-08-28 05:25:00,65.5,65.1,29.84,North,0,0.7,0.7,99,0.00,,,0.00,meteobridge,2013-08-28 09:25:00,
2013-08-28 05:30:00,65.3,64.9,29.83,West,270,0.0,0.7,99,0.00,,,0.00,meteobridge,2013-08-28 09:30:00,
2013-08-28 05:34:00,65.3,64.9,29.83,North,0,1.6,1.6,99,0.00,,,0.00,meteobridge,2013-08-28 09:34:00,
2013-08-28 05:39:00,65.3,64.9,29.84,SW,225,0.7,0.7,99,0.00,,,0.00,meteobridge,2013-08-28 09:39:00,
2013-08-28 05:44:00,65.3,64.9,29.83,NE,45,0.0,0.0,99,0.00,,,0.00,meteobridge,2013-08-28 09:44:00,
2013-08-28 05:49:00,65.3,64.9,29.84,NW,315,0.0,0.7,99,0.00,,,0.00,meteobridge,2013-08-28 09:49:00,
2013-08-28 05:55:00,65.1,64.8,29.84,NE,45,0.0,0.0,99,0.00,,,0.00,meteobridge,2013-08-28 09:55:00,
2013-08-28 06:00:00,65.3,64.9,29.84,East,90,0.0,0.0,99,0.00,,,0.00,meteobridge,2013-08-28 10:00:00,
2013-08-28 06:05:00,65.3,64.9,29.84,NW,315,0.0,0.0,99,0.00,,,0.00,meteobridge,2013-08-28 10:05:00,
2013-08-28 06:10:00,65.3,64.9,29.85,NW,315,0.0,0.0,99,0.00,,,0.00,meteobridge,2013-08-28 10:10:00,
2013-08-28 06:15:00,65.3,64.9,29.85,North,0,0.0,0.0,99,0.00,,,0.00,meteobridge,2013-08-28 10:15:00,
2013-08-28 06:20:00,65.3,64.9,29.85,North,0,0.0,0.0,99,0.00,,,0.00,meteobridge,2013-08-28 10:20:00,
2013-08-28 06:26:00,65.3,64.9,29.85,North,0,0.0,0.0,99,0.00,,,0.00,meteobridge,2013-08-28 10:26:00,
2013-08-28 06:31:00,65.3,64.9,29.85,SW,225,0.7,0.7,99,0.00,,,0.00,meteobridge,2013-08-28 10:31:00,
2013-08-28 06:36:00,65.1,64.8,29.86,SE,135,0.0,0.0,99,0.00,,,0.00,meteobridge,2013-08-28 10:36:00,
2013-08-28 06:41:00,65.1,64.8,29.86,SSE,158,0.7,0.7,99,0.00,,,0.00,meteobridge,2013-08-28 10:41:00,
2013-08-28 06:46:00,65.1,64.8,29.86,NE,45,0.7,0.7,99,0.00,,,0.00,meteobridge,2013-08-28 10:46:00,
2013-08-28 06:51:00,65.1,64.8,29.86,SE,135,0.7,0.7,99,0.00,,,0.00,meteobridge,2013-08-28 10:51:00,
2013-08-28 06:57:00,65.1,64.8,29.86,East,90,0.7,0.7,99,0.00,,,0.00,meteobridge,2013-08-28 10:57:00,
2013-08-28 07:02:00,65.1,64.8,29.86,NW,315,0.7,0.7,99,0.00,,,0.00,meteobridge,2013-08-28 11:02:00,
2013-08-28 07:07:00,65.1,64.8,29.86,NE,45,0.7,0.7,99,0.00,,,0.00,meteobridge,2013-08-28 11:07:00,
2013-08-28 07:12:00,65.1,64.8,29.86,NW,315,0.7,0.7,99,0.00,,,0.00,meteobridge,2013-08-28 11:12:00,
2013-08-28 07:17:00,65.1,64.8,29.86,NW,315,0.7,0.7,99,0.00,,,0.00,meteobridge,2013-08-28 11:17:00,
2013-08-28 07:22:00,65.1,64.8,29.86,West,270,0.7,0.7,99,0.00,,,0.00,meteobridge,2013-08-28 11:22:00,
2013-08-28 07:28:00,65.1,64.8,29.87,West,270,0.7,0.7,99,0.00,,,0.00,meteobridge,2013-08-28 11:28:00,
2013-08-28 07:33:00,65.1,64.8,29.87,North,0,0.7,1.6,99,0.00,,,0.00,meteobridge,2013-08-28 11:33:00,
2013-08-28 07:38:00,65.1,64.8,29.87,East,90,0.0,0.7,99,0.00,,,0.00,meteobridge,2013-08-28 11:38:00,
2013-08-28 07:43:00,65.3,64.9,29.87,NW,315,0.7,1.6,99,0.00,,,0.00,meteobridge,2013-08-28 11:43:00,
2013-08-28 07:48:00,65.3,64.9,29.87,North,0,0.7,0.7,99,0.00,,,0.00,meteobridge,2013-08-28 11:48:00,
2013-08-28 07:53:00,65.5,65.1,29.87,NW,315,0.7,1.6,99,0.00,,,0.00,meteobridge,2013-08-28 11:53:00,
2013-08-28 07:59:00,65.7,65.3,29.87,West,270,1.6,1.6,99,0.00,,,0.00,meteobridge,2013-08-28 11:59:00,
2013-08-28 08:04:00,65.7,65.3,29.87,South,180,0.7,0.7,99,0.00,,,0.00,meteobridge,2013-08-28 12:04:00,
2013-08-28 08:09:00,65.8,65.5,29.87,ESE,113,0.7,1.6,99,0.00,,,0.00,meteobridge,2013-08-28 12:09:00,
2013-08-28 08:14:00,66.0,65.7,29.87,East,90,0.0,0.7,99,0.00,,,0.00,meteobridge,2013-08-28 12:14:00,
2013-08-28 08:19:00,66.2,65.8,29.86,East,90,0.7,0.7,99,0.00,,,0.00,meteobridge,2013-08-28 12:19:00,
2013-08-28 08:25:00,66.4,66.0,29.86,North,0,0.0,0.0,99,0.00,,,0.00,meteobridge,2013-08-28 12:25:00,
2013-08-28 08:30:00,66.6,66.2,29.86,North,0,0.0,0.0,99,0.00,,,0.00,meteobridge,2013-08-28 12:30:00,
2013-08-28 08:35:00,66.9,66.6,29.86,South,180,0.0,0.0,99,0.00,,,0.00,meteobridge,2013-08-28 12:35:00,
2013-08-28 08:40:00,67.3,66.9,29.86,NW,315,0.7,0.7,99,0.00,,,0.00,meteobridge,2013-08-28 12:40:00,
2013-08-28 08:45:00,67.3,66.9,29.86,NW,315,0.7,0.7,99,0.00,,,0.00,meteobridge,2013-08-28 12:45:00,
2013-08-28 08:50:00,67.5,67.1,29.86,West,270,1.6,1.6,99,0.00,,,0.00,meteobridge,2013-08-28 12:50:00,
2013-08-28 08:56:00,67.5,67.1,29.86,SE,135,0.7,0.7,99,0.00,,,0.00,meteobridge,2013-08-28 12:56:00,
2013-08-28 09:01:00,67.6,67.3,29.86,NW,315,0.7,1.6,99,0.00,,,0.00,meteobridge,2013-08-28 13:01:00,
2013-08-28 09:06:00,67.8,67.5,29.86,SE,135,0.7,0.7,99,0.00,,,0.00,meteobridge,2013-08-28 13:06:00,
2013-08-28 09:11:00,67.8,67.5,29.86,SW,225,0.7,0.7,99,0.00,,,0.00,meteobridge,2013-08-28 13:11:00,
2013-08-28 09:16:00,68.0,67.6,29.86,SW,225,0.7,1.6,99,0.00,,,0.00,meteobridge,2013-08-28 13:16:00,
2013-08-28 09:21:00,68.2,67.8,29.86,NW,315,0.7,1.6,99,0.00,,,0.00,meteobridge,2013-08-28 13:21:00,
2013-08-28 09:27:00,68.0,67.6,29.86,East,90,1.6,2.2,99,0.00,,,0.00,meteobridge,2013-08-28 13:27:00,
2013-08-28 09:32:00,68.0,67.6,29.86,NW,315,0.0,0.7,99,0.00,,,0.00,meteobridge,2013-08-28 13:32:00,
2013-08-28 09:37:00,68.2,67.8,29.86,NE,45,1.6,3.8,99,0.00,,,0.00,meteobridge,2013-08-28 13:37:00,
2013-08-28 09:42:00,68.2,67.8,29.86,NW,315,0.7,1.6,99,0.00,,,0.00,meteobridge,2013-08-28 13:42:00,
2013-08-28 09:47:00,68.4,68.0,29.86,NE,45,0.7,0.7,99,0.00,,,0.00,meteobridge,2013-08-28 13:47:00,
2013-08-28 09:52:00,68.4,68.0,29.87,NW,315,0.0,0.7,99,0.00,,,0.00,meteobridge,2013-08-28 13:52:00,
2013-08-28 09:58:00,68.4,68.0,29.86,West,270,1.6,1.6,99,0.00,,,0.00,meteobridge,2013-08-28 13:58:00,
2013-08-28 10:03:00,68.4,68.0,29.86,NW,315,0.7,0.7,99,0.00,,,0.00,meteobridge,2013-08-28 14:03:00,
2013-08-28 10:08:00,68.4,68.0,29.86,West,270,1.6,2.2,99,0.00,,,0.00,meteobridge,2013-08-28 14:08:00,
2013-08-28 10:13:00,68.7,68.4,29.86,NE,45,1.6,1.6,99,0.00,,,0.00,meteobridge,2013-08-28 14:13:00,
2013-08-28 10:18:00,69.1,68.5,29.87,North,0,0.0,0.7,98,0.00,,,0.00,meteobridge,2013-08-28 14:18:00,
2013-08-28 10:23:00,69.1,68.5,29.87,NE,45,0.7,0.7,98,0.00,,,0.00,meteobridge,2013-08-28 14:23:00,
2013-08-28 10:29:00,69.3,68.4,29.87,NE,45,0.0,0.7,97,0.00,,,0.00,meteobridge,2013-08-28 14:29:00,
2013-08-28 10:34:00,69.4,68.5,29.87,SE,135,0.0,0.7,97,0.00,,,0.00,meteobridge,2013-08-28 14:34:00,
2013-08-28 10:39:00,69.4,68.5,29.86,East,90,0.7,1.6,97,0.00,,,0.00,meteobridge,2013-08-28 14:39:00,
2013-08-28 10:44:00,69.6,68.4,29.87,East,90,0.7,0.7,96,0.00,,,0.00,meteobridge,2013-08-28 14:44:00,
2013-08-28 10:49:00,69.6,68.4,29.86,West,270,0.7,0.7,96,0.00,,,0.00,meteobridge,2013-08-28 14:49:00,
2013-08-28 10:54:00,69.8,68.0,29.87,North,0,0.7,0.7,94,0.00,,,0.00,meteobridge,2013-08-28 14:54:00,
2013-08-28 11:00:00,70.0,68.2,29.86,North,0,0.7,0.7,94,0.00,,,0.00,meteobridge,2013-08-28 15:00:00,
2013-08-28 11:05:00,70.2,68.4,29.87,NE,45,0.7,0.7,94,0.00,,,0.00,meteobridge,2013-08-28 15:05:00,
2013-08-28 11:10:00,70.2,68.0,29.86,NW,315,0.7,1.6,93,0.00,,,0.00,meteobridge,2013-08-28 15:10:00,
2013-08-28 11:15:00,70.2,68.0,29.87,West,270,1.6,2.2,93,0.00,,,0.00,meteobridge,2013-08-28 15:15:00,
2013-08-28 11:20:00,70.2,68.0,29.87,NW,315,1.6,1.6,93,0.00,,,0.00,meteobridge,2013-08-28 15:20:00,
2013-08-28 11:25:00,70.2,67.6,29.86,East,90,0.0,1.6,92,0.00,,,0.00,meteobridge,2013-08-28 15:25:00,
2013-08-28 11:31:00,69.8,67.3,29.87,North,0,0.0,1.6,92,0.00,,,0.00,meteobridge,2013-08-28 15:31:00,
2013-08-28 11:36:00,70.0,67.5,29.87,North,0,0.0,0.0,92,0.00,,,0.00,meteobridge,2013-08-28 15:36:00,
2013-08-28 11:41:00,70.2,67.6,29.87,North,0,0.0,0.0,92,0.00,,,0.00,meteobridge,2013-08-28 15:41:00,
2013-08-28 11:46:00,70.3,67.8,29.86,North,0,0.0,1.6,92,0.00,,,0.00,meteobridge,2013-08-28 15:46:00,
2013-08-28 11:51:00,70.3,67.6,29.87,NW,315,1.6,1.6,91,0.00,,,0.00,meteobridge,2013-08-28 15:51:00,
2013-08-28 11:56:00,70.5,67.8,29.87,East,90,1.6,1.6,91,0.00,,,0.00,meteobridge,2013-08-28 15:56:00,
2013-08-28 12:02:00,70.7,68.0,29.87,NW,315,1.6,2.2,91,0.00,,,0.00,meteobridge,2013-08-28 16:02:00,
2013-08-28 12:07:00,70.7,68.0,29.87,SW,225,1.6,1.6,91,0.00,,,0.00,meteobridge,2013-08-28 16:07:00,
2013-08-28 12:12:00,70.9,67.8,29.87,East,90,0.7,0.7,90,0.00,,,0.00,meteobridge,2013-08-28 16:12:00,
2013-08-28 12:17:00,71.1,68.0,29.86,NW,315,0.7,0.7,90,0.00,,,0.00,meteobridge,2013-08-28 16:17:00,
2013-08-28 12:22:00,71.2,68.2,29.86,West,270,0.7,2.2,90,0.00,,,0.00,meteobridge,2013-08-28 16:22:00,
2013-08-28 12:27:00,71.6,68.2,29.86,North,0,0.7,1.6,89,0.00,,,0.00,meteobridge,2013-08-28 16:27:00,
2013-08-28 12:33:00,72.0,68.2,29.86,SW,225,0.7,0.7,88,0.00,,,0.00,meteobridge,2013-08-28 16:33:00,
2013-08-28 12:38:00,72.3,68.2,29.86,East,90,0.0,1.6,87,0.00,,,0.00,meteobridge,2013-08-28 16:38:00,
2013-08-28 12:43:00,72.5,68.4,29.86,ENE,68,2.2,2.2,87,0.00,,,0.00,meteobridge,2013-08-28 16:43:00,
2013-08-28 12:48:00,72.5,68.0,29.86,West,270,3.1,3.1,86,0.00,,,0.00,meteobridge,2013-08-28 16:48:00,
2013-08-28 12:53:00,71.8,67.1,29.86,SW,225,0.7,0.7,85,0.00,,,0.00,meteobridge,2013-08-28 16:53:00,
2013-08-28 12:58:00,71.6,67.1,29.86,SE,135,0.7,2.2,86,0.00,,,0.00,meteobridge,2013-08-28 16:58:00,
2013-08-28 13:04:00,71.8,67.3,29.86,NW,315,0.7,1.6,86,0.00,,,0.00,meteobridge,2013-08-28 17:04:00,
2013-08-28 13:09:00,72.0,67.5,29.86,SE,135,0.7,0.7,86,0.00,,,0.00,meteobridge,2013-08-28 17:09:00,
2013-08-28 13:14:00,72.3,67.8,29.86,SW,225,1.6,1.6,86,0.00,,,0.00,meteobridge,2013-08-28 17:14:00,
2013-08-28 13:19:00,72.3,67.6,29.86,NE,45,1.6,2.2,85,0.00,,,0.00,meteobridge,2013-08-28 17:19:00,
2013-08-28 13:24:00,72.5,67.8,29.86,NW,315,1.6,2.2,85,0.00,,,0.00,meteobridge,2013-08-28 17:24:00,
2013-08-28 13:29:00,72.5,67.8,29.86,NW,315,0.7,1.6,85,0.00,,,0.00,meteobridge,2013-08-28 17:29:00,
2013-08-28 13:35:00,72.9,68.0,29.86,West,270,0.7,3.1,85,0.00,,,0.00,meteobridge,2013-08-28 17:35:00,
2013-08-28 13:40:00,72.5,67.5,29.86,East,90,0.7,0.7,84,0.00,,,0.00,meteobridge,2013-08-28 17:40:00,
2013-08-28 13:45:00,73.0,68.2,29.86,North,0,0.7,0.7,85,0.00,,,0.00,meteobridge,2013-08-28 17:45:00,
2013-08-28 13:50:00,73.2,68.2,29.86,North,0,0.7,1.6,84,0.00,,,0.00,meteobridge,2013-08-28 17:50:00,
2013-08-28 13:55:00,73.6,68.7,29.85,NW,315,0.7,1.6,85,0.00,,,0.00,meteobridge,2013-08-28 17:55:00,
2013-08-28 14:00:00,73.4,68.0,29.85,SE,135,0.7,1.6,83,0.00,,,0.00,meteobridge,2013-08-28 18:00:00,
2013-08-28 14:06:00,73.2,67.8,29.85,NW,315,0.0,0.7,83,0.00,,,0.00,meteobridge,2013-08-28 18:06:00,
2013-08-28 14:11:00,73.2,67.5,29.86,West,270,3.8,3.8,82,0.00,,,0.00,meteobridge,2013-08-28 18:11:00,
2013-08-28 14:16:00,72.7,67.3,29.86,West,270,0.7,0.7,83,0.00,,,0.00,meteobridge,2013-08-28 18:16:00,
2013-08-28 14:21:00,72.7,67.6,29.86,East,90,1.6,1.6,84,0.00,,,0.00,meteobridge,2013-08-28 18:21:00,
2013-08-28 14:26:00,72.3,66.9,29.86,North,0,0.7,1.6,83,0.00,,,0.00,meteobridge,2013-08-28 18:26:00,
2013-08-28 14:32:00,72.0,66.9,29.86,WNW,293,1.6,1.6,84,0.00,,,0.00,meteobridge,2013-08-28 18:32:00,
2013-08-28 14:37:00,71.8,66.7,29.86,West,270,1.6,1.6,84,0.00,,,0.00,meteobridge,2013-08-28 18:37:00,
2013-08-28 14:42:00,71.4,66.7,29.86,North,0,0.7,0.7,85,0.00,,,0.00,meteobridge,2013-08-28 18:42:00,
2013-08-28 14:47:00,71.4,67.1,29.86,WSW,248,1.6,1.6,86,0.00,,,0.00,meteobridge,2013-08-28 18:47:00,
2013-08-28 14:52:00,71.4,67.1,29.85,West,270,0.7,0.7,86,0.00,,,0.00,meteobridge,2013-08-28 18:52:00,
2013-08-28 14:57:00,71.4,67.1,29.85,ENE,68,0.7,1.6,86,0.00,,,0.00,meteobridge,2013-08-28 18:57:00,
2013-08-28 15:03:00,71.6,66.9,29.85,West,270,0.7,1.6,85,0.00,,,0.00,meteobridge,2013-08-28 19:03:00,
2013-08-28 15:08:00,71.6,66.9,29.85,West,270,1.6,2.2,85,0.00,,,0.00,meteobridge,2013-08-28 19:08:00,
2013-08-28 15:13:00,71.4,67.1,29.85,NE,45,0.7,1.6,86,0.00,,,0.00,meteobridge,2013-08-28 19:13:00,
2013-08-28 15:18:00,71.6,66.9,29.85,North,0,0.0,1.6,85,0.00,,,0.00,meteobridge,2013-08-28 19:18:00,
2013-08-28 15:23:00,71.4,67.1,29.85,SE,135,0.7,1.6,86,0.00,,,0.00,meteobridge,2013-08-28 19:23:00,
2013-08-28 15:28:00,71.1,66.7,29.85,NE,45,0.7,0.7,86,0.00,,,0.00,meteobridge,2013-08-28 19:28:00,
2013-08-28 15:34:00,70.9,66.6,29.85,West,270,1.6,1.6,86,0.00,,,0.00,meteobridge,2013-08-28 19:34:00,
2013-08-28 15:39:00,70.7,66.4,29.85,NW,315,0.7,1.6,86,0.00,,,0.00,meteobridge,2013-08-28 19:39:00,
2013-08-28 15:44:00,70.9,66.7,29.85,West,270,1.6,1.6,87,0.00,,,0.00,meteobridge,2013-08-28 19:44:00,
2013-08-28 15:49:00,70.9,66.7,29.85,SW,225,0.7,0.7,87,0.00,,,0.00,meteobridge,2013-08-28 19:49:00,
2013-08-28 15:54:00,71.1,66.9,29.85,NE,45,0.7,0.7,87,0.00,,,0.00,meteobridge,2013-08-28 19:54:00,
2013-08-28 15:59:00,70.9,66.7,29.84,SW,225,0.7,1.6,87,0.00,,,0.00,meteobridge,2013-08-28 19:59:00,
2013-08-28 16:05:00,70.7,66.6,29.84,NNE,23,0.7,2.2,87,0.00,,,0.00,meteobridge,2013-08-28 20:05:00,
2013-08-28 16:10:00,70.5,66.4,29.84,NE,45,0.7,0.7,87,0.00,,,0.00,meteobridge,2013-08-28 20:10:00,
2013-08-28 16:15:00,70.3,66.2,29.84,North,0,0.0,0.7,87,0.00,,,0.00,meteobridge,2013-08-28 20:15:00,
2013-08-28 16:20:00,70.2,66.4,29.84,West,270,0.7,0.7,88,0.00,,,0.00,meteobridge,2013-08-28 20:20:00,
2013-08-28 16:25:00,70.3,66.6,29.84,NW,315,0.7,0.7,88,0.00,,,0.00,meteobridge,2013-08-28 20:25:00,
2013-08-28 16:30:00,70.2,66.4,29.84,SE,135,0.7,0.7,88,0.00,,,0.00,meteobridge,2013-08-28 20:30:00,
2013-08-28 16:36:00,69.8,66.0,29.85,West,270,1.6,1.6,88,0.00,,,0.00,meteobridge,2013-08-28 20:36:00,
2013-08-28 16:41:00,69.8,66.0,29.85,West,270,0.0,0.0,88,0.00,,,0.00,meteobridge,2013-08-28 20:41:00,
2013-08-28 16:46:00,69.8,66.4,29.85,NE,45,0.0,0.0,89,0.00,,,0.00,meteobridge,2013-08-28 20:46:00,
2013-08-28 16:51:00,69.8,66.4,29.85,NW,315,0.7,1.6,89,0.00,,,0.00,meteobridge,2013-08-28 20:51:00,
2013-08-28 16:56:00,70.0,66.6,29.85,East,90,0.7,1.6,89,0.00,,,0.00,meteobridge,2013-08-28 20:56:00,
2013-08-28 17:01:00,70.0,66.6,29.85,NW,315,0.7,0.7,89,0.00,,,0.00,meteobridge,2013-08-28 21:01:00,
2013-08-28 17:07:00,69.6,66.6,29.85,SW,225,0.0,0.7,90,0.00,,,0.00,meteobridge,2013-08-28 21:07:00,
2013-08-28 17:12:00,69.6,66.6,29.85,NW,315,0.7,0.7,90,0.00,,,0.00,meteobridge,2013-08-28 21:12:00,
2013-08-28 17:17:00,69.8,66.7,29.85,West,270,0.0,0.0,90,0.00,,,0.00,meteobridge,2013-08-28 21:17:00,
2013-08-28 17:22:00,69.8,66.7,29.86,NE,45,0.0,0.7,90,0.00,,,0.00,meteobridge,2013-08-28 21:22:00,
2013-08-28 17:27:00,69.8,66.7,29.86,SW,225,0.7,0.7,90,0.00,,,0.00,meteobridge,2013-08-28 21:27:00,
2013-08-28 17:32:00,69.8,66.7,29.86,NE,45,0.7,0.7,90,0.00,,,0.00,meteobridge,2013-08-28 21:32:00,
2013-08-28 17:38:00,69.6,66.9,29.87,West,270,0.7,0.7,91,0.00,,,0.00,meteobridge,2013-08-28 21:38:00,
2013-08-28 17:43:00,69.6,66.9,29.86,East,90,1.6,1.6,91,0.00,,,0.00,meteobridge,2013-08-28 21:43:00,
2013-08-28 17:48:00,69.4,66.7,29.87,SW,225,0.0,0.0,91,0.00,,,0.00,meteobridge,2013-08-28 21:48:00,
2013-08-28 17:53:00,69.6,67.3,29.86,North,0,0.0,0.0,92,0.00,,,0.00,meteobridge,2013-08-28 21:53:00,
2013-08-28 17:58:00,69.6,67.3,29.86,SE,135,0.0,0.0,92,0.00,,,0.00,meteobridge,2013-08-28 21:58:00,
2013-08-28 18:03:00,69.4,67.1,29.86,NE,45,0.0,0.0,92,0.00,,,0.00,meteobridge,2013-08-28 22:03:00,
2013-08-28 18:09:00,69.4,67.1,29.86,SW,225,0.0,0.7,92,0.00,,,0.00,meteobridge,2013-08-28 22:09:00,
2013-08-28 18:14:00,69.4,67.1,29.86,West,270,0.7,0.7,92,0.00,,,0.00,meteobridge,2013-08-28 22:14:00,
2013-08-28 18:19:00,69.4,67.1,29.86,SW,225,0.0,0.0,92,0.00,,,0.00,meteobridge,2013-08-28 22:19:00,
2013-08-28 18:24:00,69.3,66.9,29.87,West,270,0.0,0.0,92,0.00,,,0.00,meteobridge,2013-08-28 22:24:00,
2013-08-28 18:29:00,69.3,67.1,29.87,West,270,0.7,1.6,93,0.00,,,0.00,meteobridge,2013-08-28 22:29:00,
2013-08-28 18:34:00,68.9,66.6,29.86,East,90,0.7,0.7,92,0.00,,,0.00,meteobridge,2013-08-28 22:34:00,
2013-08-28 18:40:00,68.7,66.4,29.86,SW,225,1.6,1.6,92,0.00,,,0.00,meteobridge,2013-08-28 22:40:00,
2013-08-28 18:45:00,68.4,66.2,29.86,West,270,0.0,0.0,93,0.00,,,0.00,meteobridge,2013-08-28 22:45:00,
2013-08-28 18:50:00,68.0,65.8,29.87,West,270,0.7,1.6,93,0.00,,,0.00,meteobridge,2013-08-28 22:50:00,
2013-08-28 18:55:00,67.6,65.8,29.87,West,270,0.0,0.0,94,0.00,,,0.00,meteobridge,2013-08-28 22:55:00,
2013-08-28 19:00:00,67.5,65.7,29.88,SW,225,0.7,0.7,94,0.00,,,0.00,meteobridge,2013-08-28 23:00:00,
2013-08-28 19:05:00,67.1,65.3,29.88,SW,225,0.7,0.7,94,0.00,,,0.00,meteobridge,2013-08-28 23:05:00,
2013-08-28 19:11:00,66.7,64.9,29.88,North,0,0.0,0.0,94,0.00,,,0.00,meteobridge,2013-08-28 23:11:00,
2013-08-28 19:16:00,66.7,65.3,29.88,West,270,0.7,0.7,95,0.00,,,0.00,meteobridge,2013-08-28 23:16:00,
2013-08-28 19:21:00,66.6,65.1,29.88,West,270,0.0,0.0,95,0.00,,,0.00,meteobridge,2013-08-28 23:21:00,
2013-08-28 19:26:00,66.4,64.9,29.88,West,270,0.7,0.7,95,0.00,,,0.00,meteobridge,2013-08-28 23:26:00,
2013-08-28 19:31:00,66.2,64.8,29.88,North,0,0.7,0.7,95,0.00,,,0.00,meteobridge,2013-08-28 23:31:00,
2013-08-28 19:36:00,65.8,64.6,29.89,West,270,0.7,0.7,96,0.00,,,0.00,meteobridge,2013-08-28 23:36:00,
2013-08-28 19:42:00,65.8,64.9,29.89,NE,45,0.7,0.7,97,0.00,,,0.00,meteobridge,2013-08-28 23:42:00,
2013-08-28 19:47:00,65.7,64.8,29.89,West,270,0.0,0.0,97,0.00,,,0.00,meteobridge,2013-08-28 23:47:00,
2013-08-28 19:52:00,65.5,64.6,29.90,NW,315,0.0,0.0,97,0.00,,,0.00,meteobridge,2013-08-28 23:52:00,
2013-08-28 19:57:00,65.5,64.6,29.89,North,0,0.0,0.0,97,0.00,,,0.00,meteobridge,2013-08-28 23:57:00,
2013-08-28 20:02:00,65.3,64.4,29.90,East,90,0.0,0.0,97,0.00,,,0.00,meteobridge,2013-08-29 00:02:00,
2013-08-28 20:08:00,65.3,64.4,29.90,East,90,0.0,0.0,97,0.00,,,0.00,meteobridge,2013-08-29 00:08:00,
2013-08-28 20:13:00,65.3,64.4,29.90,East,90,0.0,0.0,97,0.00,,,0.00,meteobridge,2013-08-29 00:13:00,
2013-08-28 20:18:00,65.1,64.6,29.90,North,0,0.7,1.6,98,0.00,,,0.00,meteobridge,2013-08-29 00:18:00,
2013-08-28 20:23:00,65.1,64.6,29.90,SW,225,0.7,0.7,98,0.00,,,0.00,meteobridge,2013-08-29 00:23:00,
2013-08-28 20:28:00,65.1,64.6,29.90,North,0,0.0,0.0,98,0.00,,,0.00,meteobridge,2013-08-29 00:28:00,
2013-08-28 20:33:00,65.1,64.6,29.90,East,90,0.0,0.7,98,0.00,,,0.00,meteobridge,2013-08-29 00:33:00,
2013-08-28 20:39:00,65.1,64.6,29.89,West,270,0.0,0.7,98,0.00,,,0.00,meteobridge,2013-08-29 00:39:00,
2013-08-28 20:44:00,65.1,64.6,29.89,West,270,0.7,0.7,98,0.00,,,0.00,meteobridge,2013-08-29 00:44:00,
2013-08-28 20:49:00,65.1,64.6,29.89,West,270,0.0,0.7,98,0.00,,,0.00,meteobridge,2013-08-29 00:49:00,
2013-08-28 20:54:00,64.9,64.6,29.90,North,0,0.0,0.7,99,0.00,,,0.00,meteobridge,2013-08-29 00:54:00,
2013-08-28 20:59:00,64.9,64.6,29.90,SW,225,0.7,0.7,99,0.00,,,0.00,meteobridge,2013-08-29 00:59:00,
2013-08-28 21:04:00,64.9,64.6,29.90,East,90,0.0,0.7,99,0.00,,,0.00,meteobridge,2013-08-29 01:04:00,
2013-08-28 21:10:00,65.1,64.8,29.90,West,270,0.0,0.7,99,0.00,,,0.00,meteobridge,2013-08-29 01:10:00,
2013-08-28 21:15:00,65.1,64.8,29.91,South,180,0.0,0.7,99,0.00,,,0.00,meteobridge,2013-08-29 01:15:00,
2013-08-28 21:20:00,65.1,64.8,29.90,SE,135,0.0,0.0,99,0.00,,,0.00,meteobridge,2013-08-29 01:20:00,
2013-08-28 21:25:00,65.1,64.8,29.91,North,0,0.0,0.0,99,0.00,,,0.00,meteobridge,2013-08-29 01:25:00,
2013-08-28 21:30:00,65.1,64.8,29.91,East,90,0.0,0.0,99,0.00,,,0.00,meteobridge,2013-08-29 01:30:00,
2013-08-28 21:35:00,65.1,64.8,29.91,West,270,0.0,0.0,99,0.00,,,0.00,meteobridge,2013-08-29 01:35:00,
2013-08-28 21:41:00,65.1,64.8,29.91,West,270,0.0,0.0,99,0.00,,,0.00,meteobridge,2013-08-29 01:41:00,
2013-08-28 21:46:00,65.1,64.8,29.90,West,270,0.0,0.0,99,0.00,,,0.00,meteobridge,2013-08-29 01:46:00,
2013-08-28 21:51:00,65.1,64.8,29.91,East,90,0.7,0.7,99,0.00,,,0.00,meteobridge,2013-08-29 01:51:00,
2013-08-28 21:56:00,65.1,64.8,29.90,West,270,0.7,1.6,99,0.00,,,0.00,meteobridge,2013-08-29 01:56:00,
2013-08-28 22:01:00,65.1,64.8,29.91,NW,315,0.0,0.0,99,0.00,,,0.00,meteobridge,2013-08-29 02:01:00,
2013-08-28 22:06:00,65.1,64.8,29.91,East,90,0.7,0.7,99,0.00,,,0.00,meteobridge,2013-08-29 02:06:00,
2013-08-28 22:12:00,65.1,64.8,29.91,West,270,1.6,4.5,99,0.00,,,0.00,meteobridge,2013-08-29 02:12:00,
2013-08-28 22:17:00,65.1,64.8,29.91,West,270,0.7,1.6,99,0.00,,,0.00,meteobridge,2013-08-29 02:17:00,
2013-08-28 22:22:00,65.1,64.8,29.91,West,270,0.0,0.0,99,0.00,,,0.00,meteobridge,2013-08-29 02:22:00,
2013-08-28 22:27:00,65.3,64.9,29.91,NE,45,0.7,0.7,99,0.00,,,0.00,meteobridge,2013-08-29 02:27:00,
2013-08-28 22:32:00,65.3,64.9,29.91,SW,225,0.0,0.0,99,0.00,,,0.00,meteobridge,2013-08-29 02:32:00,
2013-08-28 22:37:00,65.3,64.9,29.91,NE,45,0.0,0.7,99,0.00,,,0.00,meteobridge,2013-08-29 02:37:00,
2013-08-28 22:43:00,65.3,64.9,29.91,NE,45,0.7,0.7,99,0.00,,,0.00,meteobridge,2013-08-29 02:43:00,
2013-08-28 22:48:00,65.5,65.1,29.91,North,0,0.7,0.7,99,0.00,,,0.00,meteobridge,2013-08-29 02:48:00,
2013-08-28 22:53:00,65.5,65.1,29.90,NE,45,0.0,0.7,99,0.00,,,0.00,meteobridge,2013-08-29 02:53:00,
2013-08-28 22:58:00,65.5,65.1,29.90,NE,45,0.0,0.0,99,0.00,,,0.00,meteobridge,2013-08-29 02:58:00,
2013-08-28 23:03:00,65.5,65.1,29.90,NE,45,0.0,0.7,99,0.00,,,0.00,meteobridge,2013-08-29 03:03:00,
2013-08-28 23:08:00,65.5,65.1,29.90,NE,45,0.0,0.0,99,0.00,,,0.00,meteobridge,2013-08-29 03:08:00,
2013-08-28 23:14:00,65.7,65.3,29.91,NE,45,0.0,0.0,99,0.00,,,0.00,meteobridge,2013-08-29 03:14:00,
2013-08-28 23:19:00,65.7,65.3,29.91,North,0,0.0,0.7,99,0.00,,,0.00,meteobridge,2013-08-29 03:19:00,
2013-08-28 23:24:00,65.7,65.3,29.90,NW,315,0.0,0.0,99,0.00,,,0.00,meteobridge,2013-08-29 03:24:00,
2013-08-28 23:29:00,65.7,65.3,29.90,NE,45,0.0,0.0,99,0.00,,,0.00,meteobridge,2013-08-29 03:29:00,
2013-08-28 23:34:00,65.7,65.3,29.91,SE,135,0.0,0.0,99,0.00,,,0.00,meteobridge,2013-08-29 03:34:00,
2013-08-28 23:39:00,65.7,65.3,29.91,NW,315,0.0,0.7,99,0.00,,,0.00,meteobridge,2013-08-29 03:39:00,
2013-08-28 23:45:00,65.7,65.3,29.91,SE,135,0.7,2.2,99,0.00,,,0.00,meteobridge,2013-08-29 03:45:00,
2013-08-28 23:50:00,65.8,65.5,29.90,East,90,1.6,1.6,99,0.00,,,0.00,meteobridge,2013-08-29 03:50:00,
2013-08-28 23:55:00,65.8,65.5,29.90,East,90,0.7,1.6,99,0.00,,,0.00,meteobridge,2013-08-29 03:55:00,